Portada
METAR-TAF:

METAR-TAF

Aeroports :

Jonesboro, Arkansas, Estats Units d'Amèrica

latitud: 35-50-14N, longitud: 090-38-35W, altitud: 79 m

METAR: manca

Hora: 18:49 (23:49 UTC)

Pronòstic

L'informe es va fer fa 21 minuts, a les 23:28 UTC
Pronòstic vàlid del 30 a les 00 UTC al 30 a les 24 UTC
Vent 6 kt del Nord
Visibilitat: 10 km
Cel clar
A partir de les 30 a les 0200 UTC
Vent 4 kt del Nord
Visibilitat: 10 km
Cel clar
A partir de les 30 a les 1500 UTC
Vent 7 kt del Nord/Nord-Est
Visibilitat: 10 km
Cel clar

TAF: KJBR 292328Z 3000/3024 36006KT P6SM SKC FM300200 36004KT P6SM SKC FM301500 03007KT P6SM SKC AMD NOT SKED

Observacions i pronòstics meteorològics de més de 4000 aeroports (METAR i TAF).

Les estacions disponibles són els punts grocs i vermells al mapa.

Posi el ratolí al punt desitjat per veure el nom de l'estació.

Feu clic per veure les observacions i els pronòstics meteorològics.

Per canviar el mapa: feu clic els botons verds amb una creu de color negre per apropar; al botó verd amb un guió per allunyar la imatge; o en les fletxes verdes per a mapes adjacents.


METAR-TAF: